KDRO

Durango-La Plata County Airport

Durango, Colorado, USA
METAR KDRO 181553Z AUTO 00000KT 10SM CLR M06/M14 A3020 RMK AO2 SLP280 T10611144
Observed Flight Rules
Dec-18 @ 15:53 UTC (39 minutes ago) Visual Flight Rules
Wind Visibility Clouds
Calm 10 miles
  • Clear skies
Temperatures Readings
Current -6°C / 21°F
Dewpoint -14°C / 7°F
Humidity 54%
Altimeter 30.2" Hg
Pressure 1028 hPa
Elevation 2035
METAR KDRO 181553Z AUTO 00000KT 10SM CLR M06/M14 A3020 RMK AO2 SLP280 T10611144
Observed Flight Rules
Dec-18 @ 15:53 UTC
(39 minutes ago)
VFR
Wind Visibility
Calm 10 miles
Clouds
  • Clear skies
Temperature Dewpoint
-6°C / 21°F -14°C / 7°F
Humidity Altimeter Pressure
54% 30.2" Hg 1028 hPa